Charter Quote
Worldwide +1-877-727-2538 Call
Select Language Lang
SAFETY RELIABILITY EXPERIENCE

Private Jet Charter Services - Yining Airport (ZWYN)

Paramount Business Jets offers private jet charter flights and luxury airliner charters to and from Yining Airport.

AIRPORT INFORMATION
ICAOZWYN
LOCATIONYining, China
FACILITY TYPEAIRPORT

At Paramount Business Jets you can hire chartered private jets to and from Yining Airport with as little as 4 hours of notice. All flights booked via Paramount Business Jets are operated by certified direct air carriers that meet and exceed the FAA part 135 and 121 protocol or a foreign equivalent safety authority. Furthermore, Paramount Business Jets subscribes to ARGUS for their third party safety checks of operators, aircraft, and crews prior each and every flight to and from Yining Airport and worldwide.

  • Quote a trip using Yining Airport or call us 24/7 - 365 days a year at +1-877-727-2538.
Questions? Call +1-877-727-2538

METAR Weather Data at Yining Airport, ZWYN

STATIONZWYN
OBSERVEDThu Aug 3, 00:00 UTC
NOWMon Oct 21, 20:02 UTC
AGE19436:02 hr ago
WINDE at 4 mph
VISIBILITYgreater than 7 miles
CLOUDSclear skies
TEMP64°F (18°C)
DEWPT43°F (6°C)
HUMIDITY46%
BAROMETER1008 hPa (29.77 in Hg)
METARZWYN 030000Z 08002MPS CAVOK 18/06 Q1008 NOSIG

Call us on +1-877-727-2538 (24 Hours) to Hire a Private Jet or Get a Quick Quote.

Find Airports Near any Location

Processing
...